Casterton, Victoria

9:27 PM AEST on September 04, 2015 (GMT +1000)
Mount Gambier | | Change Station
CLOSE
Current Station
Airport
Location: Mount Gambier Airport,
Elevation: 210 ft
Nearby Weather Stations

Elev 210 ft 37.75 °S, 140.79 °E | Updated 27 minutes ago

Overcast
Overcast
48 °F
Feels Like 48 °F
N
5
Wind Variable Wind from NW

Today
High -- | Low -- °F
--% Chance of Precip.
Yesterday
High -- | Low -- °F
Precip. -- in
6:52 AM 6:15 PM
Waning Gibbous, 60% visible
Pressure 30.30 in
Visibility 6.2 miles
Clouds Overcast 2900 ft
Dew Point 43 °F
Humidity 82%
Rainfall 0.00 in
Snow Depth Not available.
UV 0 out of 12
Pollen Not available.
Air Quality Not available.
Flu Activity Not available.
METAR YMTG 041100Z AUTO 31004KT 9999 // OVC029 09/06 Q1026
Pressure 30.30 in
Visibility 6.2 miles
Clouds Overcast 2900 ft
Dew Point 43 °F
Humidity 82%
Rainfall 0.00 in
Snow Depth Not available.
UV 0 out of 12
Pollen Not available.
Air Quality Not available.
Flu Activity Not available.
METAR YMTG 041100Z AUTO 31004KT 9999 // OVC029 09/06 Q1026

10-Day Weather Forecast

×

Almanac

Astronomy

Sep. 04, 2015 Rise Set
Actual Time
Civil Twilight
Nautical Twilight
Astronomical Twilight
Moon
Length of Visible Light
Length of Day
Tomorrow will be .
, % of the Moon is Illuminated

Today's Extremes

Country Highs Country Lows

Community

WunderPhotos

Upload Photos

1,852,150 photos uploaded!

WunderBlogs® & News

Nearby

Air Quality

  Air Quality AQ Index Pollutant
Not available.

Snow Depth

Station Depth Elevation

Earthquake Activity

City Distance Mag. Time & Date
Minimum magnitude displayed is 2.5.

Coastal Water Temperatures

Place Temperature

Stations

Nearby Weather Stations

Station Location Temp. Windchill Dew Point Humidity Wind Precip. Elev Updated Type